sensor_id;sensor_type;location;lat;lon;timestamp;temperature;humidity
70214;DHT22;60138;55.808;37.078;2023-02-22T00:00:25;-15.89;69.34
70214;DHT22;60138;55.808;37.078;2023-02-22T00:02:53;-15.90;70.08
70214;DHT22;60138;55.808;37.078;2023-02-22T00:05:19;-15.90;69.77
70214;DHT22;60138;55.808;37.078;2023-02-22T00:07:46;-15.93;69.51
70214;DHT22;60138;55.808;37.078;2023-02-22T00:10:16;-15.93;69.26
70214;DHT22;60138;55.808;37.078;2023-02-22T00:12:42;-15.97;69.42
70214;DHT22;60138;55.808;37.078;2023-02-22T00:15:08;-16.02;69.29
70214;DHT22;60138;55.808;37.078;2023-02-22T00:17:34;-16.03;69.69
70214;DHT22;60138;55.808;37.078;2023-02-22T00:20:00;-16.00;69.21
70214;DHT22;60138;55.808;37.078;2023-02-22T00:22:28;-16.03;69.98
70214;DHT22;60138;55.808;37.078;2023-02-22T00:24:56;-16.04;69.72
70214;DHT22;60138;55.808;37.078;2023-02-22T00:27:21;-16.04;69.57
70214;DHT22;60138;55.808;37.078;2023-02-22T00:29:48;-16.06;69.90
70214;DHT22;60138;55.808;37.078;2023-02-22T00:32:14;-16.06;69.70
70214;DHT22;60138;55.808;37.078;2023-02-22T00:34:40;-16.05;69.48
70214;DHT22;60138;55.808;37.078;2023-02-22T00:37:06;-16.08;69.68
70214;DHT22;60138;55.808;37.078;2023-02-22T00:39:31;-16.06;69.54
70214;DHT22;60138;55.808;37.078;2023-02-22T00:41:58;-16.06;69.65
70214;DHT22;60138;55.808;37.078;2023-02-22T00:44:23;-16.04;69.34
70214;DHT22;60138;55.808;37.078;2023-02-22T00:46:49;-16.06;69.38
70214;DHT22;60138;55.808;37.078;2023-02-22T00:49:15;-16.08;68.93
70214;DHT22;60138;55.808;37.078;2023-02-22T00:51:41;-16.09;69.61
70214;DHT22;60138;55.808;37.078;2023-02-22T00:54:07;-16.13;69.85
70214;DHT22;60138;55.808;37.078;2023-02-22T00:56:33;-16.18;69.63
70214;DHT22;60138;55.808;37.078;2023-02-22T00:58:59;-16.17;69.83
70214;DHT22;60138;55.808;37.078;2023-02-22T01:01:29;-16.13;69.23
70214;DHT22;60138;55.808;37.078;2023-02-22T01:03:55;-16.18;69.59
70214;DHT22;60138;55.808;37.078;2023-02-22T01:06:21;-16.24;70.04
70214;DHT22;60138;55.808;37.078;2023-02-22T01:08:47;-16.22;69.68
70214;DHT22;60138;55.808;37.078;2023-02-22T01:11:16;-16.22;69.45
70214;DHT22;60138;55.808;37.078;2023-02-22T01:13:42;-16.28;69.79
70214;DHT22;60138;55.808;37.078;2023-02-22T01:16:08;-16.24;69.70
70214;DHT22;60138;55.808;37.078;2023-02-22T01:18:35;-16.27;69.23
70214;DHT22;60138;55.808;37.078;2023-02-22T01:21:02;-16.32;69.56
70214;DHT22;60138;55.808;37.078;2023-02-22T01:23:28;-16.35;69.53
70214;DHT22;60138;55.808;37.078;2023-02-22T01:25:57;-16.40;70.11
70214;DHT22;60138;55.808;37.078;2023-02-22T01:28:23;-16.38;69.77
70214;DHT22;60138;55.808;37.078;2023-02-22T01:30:49;-16.44;69.36
70214;DHT22;60138;55.808;37.078;2023-02-22T01:33:15;-16.48;69.83
70214;DHT22;60138;55.808;37.078;2023-02-22T01:35:42;-16.50;69.53
70214;DHT22;60138;55.808;37.078;2023-02-22T01:38:09;-16.51;69.78
70214;DHT22;60138;55.808;37.078;2023-02-22T01:40:37;-16.50;69.85
70214;DHT22;60138;55.808;37.078;2023-02-22T01:43:24;-16.49;70.02
70214;DHT22;60138;55.808;37.078;2023-02-22T01:45:54;-16.46;69.61
70214;DHT22;60138;55.808;37.078;2023-02-22T01:51:56;-16.49;69.85
70214;DHT22;60138;55.808;37.078;2023-02-22T01:56:51;-16.51;69.61
70214;DHT22;60138;55.808;37.078;2023-02-22T01:59:19;-16.51;69.55
70214;DHT22;60138;55.808;37.078;2023-02-22T02:01:46;-16.54;69.60
70214;DHT22;60138;55.808;37.078;2023-02-22T02:04:17;-16.57;69.80
70214;DHT22;60138;55.808;37.078;2023-02-22T02:06:45;-16.57;69.79
70214;DHT22;60138;55.808;37.078;2023-02-22T02:11:46;-16.57;69.33
70214;DHT22;60138;55.808;37.078;2023-02-22T02:14:20;-16.56;69.74
70214;DHT22;60138;55.808;37.078;2023-02-22T02:16:50;-16.61;69.69
70214;DHT22;60138;55.808;37.078;2023-02-22T02:19:28;-16.62;69.65
70214;DHT22;60138;55.808;37.078;2023-02-22T02:36:07;-16.68;69.27
70214;DHT22;60138;55.808;37.078;2023-02-22T02:38:49;-16.67;69.37
70214;DHT22;60138;55.808;37.078;2023-02-22T02:41:41;-16.73;69.23
70214;DHT22;60138;55.808;37.078;2023-02-22T02:44:15;-16.70;69.22
70214;DHT22;60138;55.808;37.078;2023-02-22T02:46:55;-16.71;69.04
70214;DHT22;60138;55.808;37.078;2023-02-22T02:52:20;-16.76;69.21
70214;DHT22;60138;55.808;37.078;2023-02-22T02:54:49;-16.80;69.36
70214;DHT22;60138;55.808;37.078;2023-02-22T02:57:15;-16.84;69.56
70214;DHT22;60138;55.808;37.078;2023-02-22T02:59:41;-16.84;69.65
70214;DHT22;60138;55.808;37.078;2023-02-22T03:02:36;-16.82;69.00
70214;DHT22;60138;55.808;37.078;2023-02-22T03:10:42;-16.89;69.36
70214;DHT22;60138;55.808;37.078;2023-02-22T03:13:20;-16.97;69.44
70214;DHT22;60138;55.808;37.078;2023-02-22T03:21:25;-16.97;69.07
70214;DHT22;60138;55.808;37.078;2023-02-22T03:26:53;-16.99;68.79
70214;DHT22;60138;55.808;37.078;2023-02-22T03:29:24;-17.02;69.13
70214;DHT22;60138;55.808;37.078;2023-02-22T03:31:55;-17.08;69.43
70214;DHT22;60138;55.808;37.078;2023-02-22T03:34:28;-17.07;69.42
70214;DHT22;60138;55.808;37.078;2023-02-22T03:37:01;-17.15;69.57
70214;DHT22;60138;55.808;37.078;2023-02-22T03:39:29;-17.12;69.56
70214;DHT22;60138;55.808;37.078;2023-02-22T03:41:59;-17.14;69.51
70214;DHT22;60138;55.808;37.078;2023-02-22T03:44:28;-17.16;69.48
70214;DHT22;60138;55.808;37.078;2023-02-22T03:46:56;-17.16;69.47
70214;DHT22;60138;55.808;37.078;2023-02-22T03:49:44;-17.17;69.29
70214;DHT22;60138;55.808;37.078;2023-02-22T03:52:12;-17.23;69.49
70214;DHT22;60138;55.808;37.078;2023-02-22T03:54:39;-17.23;69.07
70214;DHT22;60138;55.808;37.078;2023-02-22T03:57:11;-17.27;69.50
70214;DHT22;60138;55.808;37.078;2023-02-22T03:59:41;-17.24;69.37
70214;DHT22;60138;55.808;37.078;2023-02-22T04:02:07;-17.23;69.28
70214;DHT22;60138;55.808;37.078;2023-02-22T04:04:33;-17.26;69.28
70214;DHT22;60138;55.808;37.078;2023-02-22T04:06:59;-17.26;69.36
70214;DHT22;60138;55.808;37.078;2023-02-22T04:09:26;-17.32;69.43
70214;DHT22;60138;55.808;37.078;2023-02-22T04:11:51;-17.30;69.36
70214;DHT22;60138;55.808;37.078;2023-02-22T04:14:17;-17.31;69.45
70214;DHT22;60138;55.808;37.078;2023-02-22T04:16:43;-17.30;69.37
70214;DHT22;60138;55.808;37.078;2023-02-22T04:19:09;-17.36;69.45
70214;DHT22;60138;55.808;37.078;2023-02-22T04:21:37;-17.33;69.36
70214;DHT22;60138;55.808;37.078;2023-02-22T04:24:04;-17.35;69.20
70214;DHT22;60138;55.808;37.078;2023-02-22T04:26:31;-17.39;69.30
70214;DHT22;60138;55.808;37.078;2023-02-22T04:28:58;-17.42;69.20
70214;DHT22;60138;55.808;37.078;2023-02-22T04:31:27;-17.45;69.37
70214;DHT22;60138;55.808;37.078;2023-02-22T04:33:56;-17.44;69.16
70214;DHT22;60138;55.808;37.078;2023-02-22T04:36:27;-17.46;68.92
70214;DHT22;60138;55.808;37.078;2023-02-22T04:38:53;-17.50;69.29
70214;DHT22;60138;55.808;37.078;2023-02-22T04:41:19;-17.48;69.68
70214;DHT22;60138;55.808;37.078;2023-02-22T04:43:45;-17.51;69.52
70214;DHT22;60138;55.808;37.078;2023-02-22T04:46:17;-17.48;69.48
70214;DHT22;60138;55.808;37.078;2023-02-22T04:48:43;-17.48;69.26
70214;DHT22;60138;55.808;37.078;2023-02-22T04:51:09;-17.48;69.59
70214;DHT22;60138;55.808;37.078;2023-02-22T04:53:38;-17.48;69.21
70214;DHT22;60138;55.808;37.078;2023-02-22T04:56:04;-17.47;69.37
70214;DHT22;60138;55.808;37.078;2023-02-22T04:58:30;-17.50;69.41
70214;DHT22;60138;55.808;37.078;2023-02-22T05:00:56;-17.48;69.34
70214;DHT22;60138;55.808;37.078;2023-02-22T05:03:22;-17.46;68.59
70214;DHT22;60138;55.808;37.078;2023-02-22T05:05:50;-17.43;68.36
70214;DHT22;60138;55.808;37.078;2023-02-22T05:08:16;-17.50;68.85
70214;DHT22;60138;55.808;37.078;2023-02-22T05:10:42;-17.45;68.91
70214;DHT22;60138;55.808;37.078;2023-02-22T05:13:08;-17.45;68.97
70214;DHT22;60138;55.808;37.078;2023-02-22T05:15:34;-17.47;69.25
70214;DHT22;60138;55.808;37.078;2023-02-22T05:18:00;-17.41;69.15
70214;DHT22;60138;55.808;37.078;2023-02-22T05:20:33;-17.38;68.91
70214;DHT22;60138;55.808;37.078;2023-02-22T05:23:00;-17.35;68.84
70214;DHT22;60138;55.808;37.078;2023-02-22T05:25:27;-17.35;68.84
70214;DHT22;60138;55.808;37.078;2023-02-22T05:27:55;-17.39;69.03
70214;DHT22;60138;55.808;37.078;2023-02-22T05:30:23;-17.32;68.66
70214;DHT22;60138;55.808;37.078;2023-02-22T05:32:50;-17.29;68.76
70214;DHT22;60138;55.808;37.078;2023-02-22T05:35:16;-17.30;68.81
70214;DHT22;60138;55.808;37.078;2023-02-22T05:37:45;-17.28;68.81
70214;DHT22;60138;55.808;37.078;2023-02-22T05:40:12;-17.27;68.71
70214;DHT22;60138;55.808;37.078;2023-02-22T05:42:39;-17.25;68.86
70214;DHT22;60138;55.808;37.078;2023-02-22T05:45:06;-17.21;68.67
70214;DHT22;60138;55.808;37.078;2023-02-22T05:47:32;-17.20;68.56
70214;DHT22;60138;55.808;37.078;2023-02-22T05:49:57;-17.15;68.54
70214;DHT22;60138;55.808;37.078;2023-02-22T05:52:23;-17.16;68.51
70214;DHT22;60138;55.808;37.078;2023-02-22T05:54:49;-17.17;68.36
70214;DHT22;60138;55.808;37.078;2023-02-22T05:57:15;-17.16;68.53
70214;DHT22;60138;55.808;37.078;2023-02-22T05:59:41;-17.09;68.46
70214;DHT22;60138;55.808;37.078;2023-02-22T06:02:07;-17.07;68.38
70214;DHT22;60138;55.808;37.078;2023-02-22T06:04:32;-17.02;68.38
70214;DHT22;60138;55.808;37.078;2023-02-22T06:06:58;-16.99;68.27
70214;DHT22;60138;55.808;37.078;2023-02-22T06:09:25;-16.98;68.17
70214;DHT22;60138;55.808;37.078;2023-02-22T06:11:51;-16.92;67.82
70214;DHT22;60138;55.808;37.078;2023-02-22T06:14:17;-16.91;68.21
70214;DHT22;60138;55.808;37.078;2023-02-22T06:16:43;-16.92;68.06
70214;DHT22;60138;55.808;37.078;2023-02-22T06:19:08;-16.89;68.07
70214;DHT22;60138;55.808;37.078;2023-02-22T06:21:34;-16.84;67.86
70214;DHT22;60138;55.808;37.078;2023-02-22T06:24:03;-16.77;67.34
70214;DHT22;60138;55.808;37.078;2023-02-22T06:26:29;-16.79;67.65
70214;DHT22;60138;55.808;37.078;2023-02-22T06:28:54;-16.79;67.73
70214;DHT22;60138;55.808;37.078;2023-02-22T06:31:20;-16.71;67.24
70214;DHT22;60138;55.808;37.078;2023-02-22T06:33:46;-16.69;67.31
70214;DHT22;60138;55.808;37.078;2023-02-22T06:36:11;-16.68;67.12
70214;DHT22;60138;55.808;37.078;2023-02-22T06:38:37;-16.66;67.18
70214;DHT22;60138;55.808;37.078;2023-02-22T06:41:03;-16.66;66.65
70214;DHT22;60138;55.808;37.078;2023-02-22T06:43:28;-16.61;66.80
70214;DHT22;60138;55.808;37.078;2023-02-22T06:45:54;-16.57;66.59
70214;DHT22;60138;55.808;37.078;2023-02-22T06:48:20;-16.51;66.62
70214;DHT22;60138;55.808;37.078;2023-02-22T06:50:46;-16.52;66.36
70214;DHT22;60138;55.808;37.078;2023-02-22T06:53:11;-16.44;66.27
70214;DHT22;60138;55.808;37.078;2023-02-22T06:55:37;-16.42;66.39
70214;DHT22;60138;55.808;37.078;2023-02-22T06:58:03;-16.33;66.54
70214;DHT22;60138;55.808;37.078;2023-02-22T07:00:30;-16.28;65.91
70214;DHT22;60138;55.808;37.078;2023-02-22T07:02:56;-16.23;65.91
70214;DHT22;60138;55.808;37.078;2023-02-22T07:05:24;-16.22;65.54
70214;DHT22;60138;55.808;37.078;2023-02-22T07:07:51;-16.21;65.17
70214;DHT22;60138;55.808;37.078;2023-02-22T07:12:49;-16.11;65.32
70214;DHT22;60138;55.808;37.078;2023-02-22T07:15:16;-16.05;65.46
70214;DHT22;60138;55.808;37.078;2023-02-22T07:17:43;-15.98;65.34
70214;DHT22;60138;55.808;37.078;2023-02-22T07:20:09;-15.91;65.28
70214;DHT22;60138;55.808;37.078;2023-02-22T07:22:34;-15.87;64.95
70214;DHT22;60138;55.808;37.078;2023-02-22T07:25:00;-15.84;64.80
70214;DHT22;60138;55.808;37.078;2023-02-22T07:27:26;-15.78;64.71
70214;DHT22;60138;55.808;37.078;2023-02-22T07:29:51;-15.69;65.05
70214;DHT22;60138;55.808;37.078;2023-02-22T07:32:17;-15.64;64.77
70214;DHT22;60138;55.808;37.078;2023-02-22T07:34:43;-15.56;64.87
70214;DHT22;60138;55.808;37.078;2023-02-22T07:37:08;-15.55;64.33
70214;DHT22;60138;55.808;37.078;2023-02-22T07:39:34;-15.56;64.08
70214;DHT22;60138;55.808;37.078;2023-02-22T07:42:00;-15.46;64.27
70214;DHT22;60138;55.808;37.078;2023-02-22T07:44:28;-15.45;63.84
70214;DHT22;60138;55.808;37.078;2023-02-22T07:46:53;-15.35;64.22
70214;DHT22;60138;55.808;37.078;2023-02-22T07:49:19;-15.31;64.03
70214;DHT22;60138;55.808;37.078;2023-02-22T07:51:45;-15.18;64.72
70214;DHT22;60138;55.808;37.078;2023-02-22T07:54:10;-15.15;63.82
70214;DHT22;60138;55.808;37.078;2023-02-22T07:56:36;-15.11;63.81
70214;DHT22;60138;55.808;37.078;2023-02-22T07:59:02;-15.08;63.65
70214;DHT22;60138;55.808;37.078;2023-02-22T08:01:27;-15.01;63.90
70214;DHT22;60138;55.808;37.078;2023-02-22T08:03:53;-14.93;63.60
70214;DHT22;60138;55.808;37.078;2023-02-22T08:06:19;-14.95;62.96
70214;DHT22;60138;55.808;37.078;2023-02-22T08:08:44;-14.91;62.96
70214;DHT22;60138;55.808;37.078;2023-02-22T08:11:10;-14.86;63.39
70214;DHT22;60138;55.808;37.078;2023-02-22T08:13:37;-14.82;63.02
70214;DHT22;60138;55.808;37.078;2023-02-22T08:16:03;-14.73;63.43
70214;DHT22;60138;55.808;37.078;2023-02-22T08:18:29;-14.71;63.00
70214;DHT22;60138;55.808;37.078;2023-02-22T08:20:55;-14.66;62.82
70214;DHT22;60138;55.808;37.078;2023-02-22T08:23:22;-14.59;63.39
70214;DHT22;60138;55.808;37.078;2023-02-22T08:25:48;-14.54;63.11
70214;DHT22;60138;55.808;37.078;2023-02-22T08:28:17;-14.50;62.76
70214;DHT22;60138;55.808;37.078;2023-02-22T08:30:43;-14.47;62.78
70214;DHT22;60138;55.808;37.078;2023-02-22T08:33:10;-14.45;62.49
70214;DHT22;60138;55.808;37.078;2023-02-22T08:35:36;-14.36;63.21
70214;DHT22;60138;55.808;37.078;2023-02-22T08:38:04;-14.40;62.15
70214;DHT22;60138;55.808;37.078;2023-02-22T08:40:35;-14.32;63.08
70214;DHT22;60138;55.808;37.078;2023-02-22T08:43:02;-14.29;62.93
70214;DHT22;60138;55.808;37.078;2023-02-22T08:45:28;-14.26;61.90
70214;DHT22;60138;55.808;37.078;2023-02-22T08:47:54;-14.22;62.29
70214;DHT22;60138;55.808;37.078;2023-02-22T08:50:26;-14.21;62.09
70214;DHT22;60138;55.808;37.078;2023-02-22T08:52:56;-14.14;62.15
70214;DHT22;60138;55.808;37.078;2023-02-22T08:55:24;-14.11;62.12
70214;DHT22;60138;55.808;37.078;2023-02-22T08:57:50;-14.04;62.06
70214;DHT22;60138;55.808;37.078;2023-02-22T09:00:17;-13.95;62.38
70214;DHT22;60138;55.808;37.078;2023-02-22T09:02:44;-13.93;61.85
70214;DHT22;60138;55.808;37.078;2023-02-22T09:05:10;-13.91;61.21
70214;DHT22;60138;55.808;37.078;2023-02-22T09:07:36;-13.87;61.63
70214;DHT22;60138;55.808;37.078;2023-02-22T09:10:01;-13.82;61.60
70214;DHT22;60138;55.808;37.078;2023-02-22T09:12:29;-13.75;61.67
70214;DHT22;60138;55.808;37.078;2023-02-22T09:14:54;-13.71;61.67
70214;DHT22;60138;55.808;37.078;2023-02-22T09:17:20;-13.57;62.97
70214;DHT22;60138;55.808;37.078;2023-02-22T09:19:46;-13.59;61.02
70214;DHT22;60138;55.808;37.078;2023-02-22T09:22:11;-13.58;61.14
70214;DHT22;60138;55.808;37.078;2023-02-22T09:24:37;-13.51;61.65
70214;DHT22;60138;55.808;37.078;2023-02-22T09:27:02;-13.45;61.63
70214;DHT22;60138;55.808;37.078;2023-02-22T09:29:28;-13.40;61.00
70214;DHT22;60138;55.808;37.078;2023-02-22T09:31:55;-13.37;60.71
70214;DHT22;60138;55.808;37.078;2023-02-22T09:34:22;-13.30;61.29
70214;DHT22;60138;55.808;37.078;2023-02-22T09:36:48;-13.28;60.02
70214;DHT22;60138;55.808;37.078;2023-02-22T09:39:16;-13.26;60.66
70214;DHT22;60138;55.808;37.078;2023-02-22T09:42:26;-13.17;60.93
70214;DHT22;60138;55.808;37.078;2023-02-22T09:45:05;-13.19;60.07
70214;DHT22;60138;55.808;37.078;2023-02-22T09:47:39;-13.21;59.86
70214;DHT22;60138;55.808;37.078;2023-02-22T09:50:09;-13.14;60.95
70214;DHT22;60138;55.808;37.078;2023-02-22T09:52:42;-13.04;60.96
70214;DHT22;60138;55.808;37.078;2023-02-22T09:55:31;-12.98;60.06
70214;DHT22;60138;55.808;37.078;2023-02-22T09:58:00;-12.83;60.94
70214;DHT22;60138;55.808;37.078;2023-02-22T10:00:30;-12.78;59.20
70214;DHT22;60138;55.808;37.078;2023-02-22T10:03:28;-12.71;60.50
70214;DHT22;60138;55.808;37.078;2023-02-22T10:06:07;-12.68;59.00
70214;DHT22;60138;55.808;37.078;2023-02-22T10:08:36;-12.63;59.01
70214;DHT22;60138;55.808;37.078;2023-02-22T10:13:48;-12.44;59.78
70214;DHT22;60138;55.808;37.078;2023-02-22T10:25:21;-12.32;59.38
70214;DHT22;60138;55.808;37.078;2023-02-22T10:32:52;-12.27;58.74
70214;DHT22;60138;55.808;37.078;2023-02-22T10:35:23;-12.28;59.08
70214;DHT22;60138;55.808;37.078;2023-02-22T10:37:55;-12.32;58.77
70214;DHT22;60138;55.808;37.078;2023-02-22T10:40:23;-12.35;58.64
70214;DHT22;60138;55.808;37.078;2023-02-22T10:42:49;-12.32;59.63
70214;DHT22;60138;55.808;37.078;2023-02-22T10:45:29;-12.21;60.64
70214;DHT22;60138;55.808;37.078;2023-02-22T10:47:56;-12.19;58.96
70214;DHT22;60138;55.808;37.078;2023-02-22T10:50:24;-12.03;59.96
70214;DHT22;60138;55.808;37.078;2023-02-22T10:52:50;-11.98;59.17
70214;DHT22;60138;55.808;37.078;2023-02-22T10:55:16;-11.93;59.48
70214;DHT22;60138;55.808;37.078;2023-02-22T10:57:46;-11.83;60.06
70214;DHT22;60138;55.808;37.078;2023-02-22T11:00:30;-11.82;59.25
70214;DHT22;60138;55.808;37.078;2023-02-22T11:03:22;-11.89;59.72
70214;DHT22;60138;55.808;37.078;2023-02-22T11:05:47;-11.82;59.50
70214;DHT22;60138;55.808;37.078;2023-02-22T11:10:46;-11.90;59.40
70214;DHT22;60138;55.808;37.078;2023-02-22T11:13:30;-11.90;58.24
70214;DHT22;60138;55.808;37.078;2023-02-22T11:16:01;-11.91;58.26
70214;DHT22;60138;55.808;37.078;2023-02-22T11:18:41;-11.85;58.07
70214;DHT22;60138;55.808;37.078;2023-02-22T11:21:10;-11.81;58.97
70214;DHT22;60138;55.808;37.078;2023-02-22T11:23:38;-11.82;58.12
70214;DHT22;60138;55.808;37.078;2023-02-22T11:26:10;-11.85;58.22
70214;DHT22;60138;55.808;37.078;2023-02-22T11:28:46;-11.79;58.24
70214;DHT22;60138;55.808;37.078;2023-02-22T11:31:15;-11.71;59.43
70214;DHT22;60138;55.808;37.078;2023-02-22T11:33:48;-11.75;57.40
70214;DHT22;60138;55.808;37.078;2023-02-22T11:36:35;-11.71;57.35
70214;DHT22;60138;55.808;37.078;2023-02-22T11:39:01;-11.76;58.74
70214;DHT22;60138;55.808;37.078;2023-02-22T11:41:29;-11.74;57.72
70214;DHT22;60138;55.808;37.078;2023-02-22T11:44:12;-11.63;58.38
70214;DHT22;60138;55.808;37.078;2023-02-22T11:46:40;-11.54;58.10
70214;DHT22;60138;55.808;37.078;2023-02-22T11:49:11;-11.49;58.38
70214;DHT22;60138;55.808;37.078;2023-02-22T12:00:11;-11.31;57.38
70214;DHT22;60138;55.808;37.078;2023-02-22T12:08:05;-11.00;56.09
70214;DHT22;60138;55.808;37.078;2023-02-22T12:21:59;-10.20;56.14
70214;DHT22;60138;55.808;37.078;2023-02-22T12:24:36;-10.29;54.98
70214;DHT22;60138;55.808;37.078;2023-02-22T12:27:08;-10.35;55.07
70214;DHT22;60138;55.808;37.078;2023-02-22T12:30:05;-10.21;54.35
70214;DHT22;60138;55.808;37.078;2023-02-22T12:32:41;-10.13;54.05
70214;DHT22;60138;55.808;37.078;2023-02-22T12:35:23;-10.05;54.30
70214;DHT22;60138;55.808;37.078;2023-02-22T12:38:08;-9.99;53.96
70214;DHT22;60138;55.808;37.078;2023-02-22T12:40:55;-9.71;54.16
70214;DHT22;60138;55.808;37.078;2023-02-22T12:43:34;-9.44;53.75
70214;DHT22;60138;55.808;37.078;2023-02-22T12:48:53;-9.38;53.01
70214;DHT22;60138;55.808;37.078;2023-02-22T12:57:01;-9.90;54.00
70214;DHT22;60138;55.808;37.078;2023-02-22T12:59:31;-10.04;53.91
70214;DHT22;60138;55.808;37.078;2023-02-22T13:04:36;-10.26;54.75
70214;DHT22;60138;55.808;37.078;2023-02-22T13:15:29;-10.20;55.31
70214;DHT22;60138;55.808;37.078;2023-02-22T13:24:07;-10.25;55.77
70214;DHT22;60138;55.808;37.078;2023-02-22T13:37:49;-10.30;57.63
70214;DHT22;60138;55.808;37.078;2023-02-22T13:40:56;-10.44;56.44
70214;DHT22;60138;55.808;37.078;2023-02-22T13:52:10;-10.46;57.18
70214;DHT22;60138;55.808;37.078;2023-02-22T13:54:44;-10.52;57.09
70214;DHT22;60138;55.808;37.078;2023-02-22T13:57:26;-10.55;57.16
70214;DHT22;60138;55.808;37.078;2023-02-22T14:13:15;-10.76;58.65
70214;DHT22;60138;55.808;37.078;2023-02-22T14:18:42;-10.88;58.53
70214;DHT22;60138;55.808;37.078;2023-02-22T14:21:18;-10.93;58.68
70214;DHT22;60138;55.808;37.078;2023-02-22T14:23:49;-10.92;58.93
70214;DHT22;60138;55.808;37.078;2023-02-22T14:26:30;-10.93;59.26
70214;DHT22;60138;55.808;37.078;2023-02-22T14:29:13;-11.03;59.21
70214;DHT22;60138;55.808;37.078;2023-02-22T14:34:10;-11.05;59.37
70214;DHT22;60138;55.808;37.078;2023-02-22T14:39:32;-11.14;59.86
70214;DHT22;60138;55.808;37.078;2023-02-22T14:42:48;-11.27;60.40
70214;DHT22;60138;55.808;37.078;2023-02-22T14:50:24;-11.31;60.69
70214;DHT22;60138;55.808;37.078;2023-02-22T14:56:41;-11.42;60.95
70214;DHT22;60138;55.808;37.078;2023-02-22T14:58:51;-11.49;61.60
70214;DHT22;60138;55.808;37.078;2023-02-22T15:03:43;-11.52;61.48
70214;DHT22;60138;55.808;37.078;2023-02-22T15:06:16;-11.60;61.89
70214;DHT22;60138;55.808;37.078;2023-02-22T15:08:44;-11.64;61.99
70214;DHT22;60138;55.808;37.078;2023-02-22T15:11:26;-11.67;62.20
70214;DHT22;60138;55.808;37.078;2023-02-22T15:13:53;-11.74;62.72
70214;DHT22;60138;55.808;37.078;2023-02-22T15:16:21;-11.75;62.23
70214;DHT22;60138;55.808;37.078;2023-02-22T15:18:58;-11.77;62.50
70214;DHT22;60138;55.808;37.078;2023-02-22T15:21:26;-11.84;62.58
70214;DHT22;60138;55.808;37.078;2023-02-22T15:23:57;-11.81;62.80
70214;DHT22;60138;55.808;37.078;2023-02-22T15:26:40;-11.85;62.86
70214;DHT22;60138;55.808;37.078;2023-02-22T15:29:14;-11.86;63.11
70214;DHT22;60138;55.808;37.078;2023-02-22T15:31:40;-11.83;63.37
70214;DHT22;60138;55.808;37.078;2023-02-22T15:36:44;-11.89;63.40
70214;DHT22;60138;55.808;37.078;2023-02-22T15:39:26;-11.84;63.08
70214;DHT22;60138;55.808;37.078;2023-02-22T15:44:41;-11.88;63.07
70214;DHT22;60138;55.808;37.078;2023-02-22T15:47:33;-11.89;63.41
70214;DHT22;60138;55.808;37.078;2023-02-22T15:53:05;-11.85;62.76
70214;DHT22;60138;55.808;37.078;2023-02-22T15:55:37;-11.89;63.41
70214;DHT22;60138;55.808;37.078;2023-02-22T16:00:43;-11.93;63.69
70214;DHT22;60138;55.808;37.078;2023-02-22T16:03:15;-11.96;63.76
70214;DHT22;60138;55.808;37.078;2023-02-22T16:05:54;-11.96;63.97
70214;DHT22;60138;55.808;37.078;2023-02-22T16:08:28;-11.92;63.76
70214;DHT22;60138;55.808;37.078;2023-02-22T16:11:05;-11.97;63.80
70214;DHT22;60138;55.808;37.078;2023-02-22T16:13:32;-11.98;64.03
70214;DHT22;60138;55.808;37.078;2023-02-22T16:16:05;-12.03;64.22
70214;DHT22;60138;55.808;37.078;2023-02-22T16:18:45;-11.98;63.83
70214;DHT22;60138;55.808;37.078;2023-02-22T16:21:12;-12.01;64.33
70214;DHT22;60138;55.808;37.078;2023-02-22T16:23:44;-12.03;64.39
70214;DHT22;60138;55.808;37.078;2023-02-22T16:26:24;-12.00;64.31
70214;DHT22;60138;55.808;37.078;2023-02-22T16:29:04;-12.06;64.56
70214;DHT22;60138;55.808;37.078;2023-02-22T16:31:33;-12.04;64.05
70214;DHT22;60138;55.808;37.078;2023-02-22T16:33:59;-12.07;64.28
70214;DHT22;60138;55.808;37.078;2023-02-22T16:39:05;-12.11;64.68
70214;DHT22;60138;55.808;37.078;2023-02-22T16:41:30;-12.12;64.79
70214;DHT22;60138;55.808;37.078;2023-02-22T16:43:56;-12.07;63.95
70214;DHT22;60138;55.808;37.078;2023-02-22T16:46:22;-12.12;64.11
70214;DHT22;60138;55.808;37.078;2023-02-22T16:48:47;-12.15;64.79
70214;DHT22;60138;55.808;37.078;2023-02-22T16:53:45;-12.20;65.02
70214;DHT22;60138;55.808;37.078;2023-02-22T16:56:13;-12.22;65.11
70214;DHT22;60138;55.808;37.078;2023-02-22T16:58:41;-12.24;64.93
70214;DHT22;60138;55.808;37.078;2023-02-22T17:01:07;-12.25;65.13
70214;DHT22;60138;55.808;37.078;2023-02-22T17:03:32;-12.25;64.73
70214;DHT22;60138;55.808;37.078;2023-02-22T17:05:58;-12.27;65.37
70214;DHT22;60138;55.808;37.078;2023-02-22T17:08:24;-12.24;64.11
70214;DHT22;60138;55.808;37.078;2023-02-22T17:10:50;-12.27;64.69
70214;DHT22;60138;55.808;37.078;2023-02-22T17:13:18;-12.29;65.33
70214;DHT22;60138;55.808;37.078;2023-02-22T17:15:45;-12.29;65.08
70214;DHT22;60138;55.808;37.078;2023-02-22T17:18:13;-12.26;64.15
70214;DHT22;60138;55.808;37.078;2023-02-22T17:20:39;-12.34;65.57
70214;DHT22;60138;55.808;37.078;2023-02-22T17:23:07;-12.28;64.81
70214;DHT22;60138;55.808;37.078;2023-02-22T17:25:38;-12.33;65.23
70214;DHT22;60138;55.808;37.078;2023-02-22T17:28:05;-12.33;65.17
70214;DHT22;60138;55.808;37.078;2023-02-22T17:30:31;-12.33;65.24
70214;DHT22;60138;55.808;37.078;2023-02-22T17:32:58;-12.32;64.90
70214;DHT22;60138;55.808;37.078;2023-02-22T17:35:25;-12.35;65.20
70214;DHT22;60138;55.808;37.078;2023-02-22T17:37:51;-12.37;65.31
70214;DHT22;60138;55.808;37.078;2023-02-22T17:40:16;-12.37;65.08
70214;DHT22;60138;55.808;37.078;2023-02-22T17:42:43;-12.35;64.80
70214;DHT22;60138;55.808;37.078;2023-02-22T17:45:11;-12.38;65.43
70214;DHT22;60138;55.808;37.078;2023-02-22T17:47:37;-12.37;65.28
70214;DHT22;60138;55.808;37.078;2023-02-22T17:50:02;-12.39;64.89
70214;DHT22;60138;55.808;37.078;2023-02-22T17:52:29;-12.41;65.49
70214;DHT22;60138;55.808;37.078;2023-02-22T17:54:55;-12.44;65.38
70214;DHT22;60138;55.808;37.078;2023-02-22T17:57:20;-12.42;65.12
70214;DHT22;60138;55.808;37.078;2023-02-22T17:59:46;-12.43;65.06
70214;DHT22;60138;55.808;37.078;2023-02-22T18:02:12;-12.42;65.25
70214;DHT22;60138;55.808;37.078;2023-02-22T18:04:37;-12.49;65.28
70214;DHT22;60138;55.808;37.078;2023-02-22T18:07:03;-12.47;65.03
70214;DHT22;60138;55.808;37.078;2023-02-22T18:09:29;-12.47;65.04
70214;DHT22;60138;55.808;37.078;2023-02-22T18:11:54;-12.49;65.40
70214;DHT22;60138;55.808;37.078;2023-02-22T18:14:20;-12.52;65.82
70214;DHT22;60138;55.808;37.078;2023-02-22T18:16:46;-12.47;65.09